sensor_id;sensor_type;location;lat;lon;timestamp;P1;durP1;ratioP1;P2;durP2;ratioP2
1410;SDS011;700;51.906;8.404;2022-08-07T00:01:51;5.13;;;3.10;;
1410;SDS011;700;51.906;8.404;2022-08-07T00:06:51;3.63;;;2.90;;
1410;SDS011;700;51.906;8.404;2022-08-07T00:11:52;4.07;;;2.37;;
1410;SDS011;700;51.906;8.404;2022-08-07T00:16:54;4.53;;;3.00;;
1410;SDS011;700;51.906;8.404;2022-08-07T00:21:56;4.40;;;3.03;;
1410;SDS011;700;51.906;8.404;2022-08-07T00:26:56;5.40;;;3.30;;
1410;SDS011;700;51.906;8.404;2022-08-07T00:31:57;5.37;;;3.10;;
1410;SDS011;700;51.906;8.404;2022-08-07T00:37:02;3.73;;;2.80;;
1410;SDS011;700;51.906;8.404;2022-08-07T00:42:03;5.53;;;3.10;;
1410;SDS011;700;51.906;8.404;2022-08-07T00:47:04;3.20;;;2.63;;
1410;SDS011;700;51.906;8.404;2022-08-07T00:52:06;5.20;;;2.90;;
1410;SDS011;700;51.906;8.404;2022-08-07T00:57:10;3.50;;;2.70;;
1410;SDS011;700;51.906;8.404;2022-08-07T01:02:12;3.37;;;2.80;;
1410;SDS011;700;51.906;8.404;2022-08-07T01:07:12;5.37;;;3.00;;
1410;SDS011;700;51.906;8.404;2022-08-07T01:12:13;4.50;;;3.33;;
1410;SDS011;700;51.906;8.404;2022-08-07T01:17:15;6.30;;;3.10;;
1410;SDS011;700;51.906;8.404;2022-08-07T01:22:18;3.50;;;3.00;;
1410;SDS011;700;51.906;8.404;2022-08-07T01:27:22;3.70;;;2.90;;
1410;SDS011;700;51.906;8.404;2022-08-07T01:32:25;3.00;;;2.53;;
1410;SDS011;700;51.906;8.404;2022-08-07T01:37:26;4.20;;;3.00;;
1410;SDS011;700;51.906;8.404;2022-08-07T01:42:27;4.07;;;2.57;;
1410;SDS011;700;51.906;8.404;2022-08-07T01:47:28;4.60;;;2.97;;
1410;SDS011;700;51.906;8.404;2022-08-07T01:52:29;5.80;;;3.50;;
1410;SDS011;700;51.906;8.404;2022-08-07T01:57:32;3.77;;;3.37;;
1410;SDS011;700;51.906;8.404;2022-08-07T02:02:45;3.53;;;3.23;;
1410;SDS011;700;51.906;8.404;2022-08-07T02:07:49;5.43;;;3.70;;
1410;SDS011;700;51.906;8.404;2022-08-07T02:12:52;5.60;;;3.60;;
1410;SDS011;700;51.906;8.404;2022-08-07T02:17:58;4.83;;;3.60;;
1410;SDS011;700;51.906;8.404;2022-08-07T02:23:02;4.87;;;3.53;;
1410;SDS011;700;51.906;8.404;2022-08-07T02:28:05;5.20;;;4.20;;
1410;SDS011;700;51.906;8.404;2022-08-07T02:33:10;5.00;;;3.90;;
1410;SDS011;700;51.906;8.404;2022-08-07T02:38:13;4.43;;;3.40;;
1410;SDS011;700;51.906;8.404;2022-08-07T02:43:19;4.80;;;3.33;;
1410;SDS011;700;51.906;8.404;2022-08-07T02:48:23;4.90;;;4.20;;
1410;SDS011;700;51.906;8.404;2022-08-07T02:53:32;6.70;;;4.20;;
1410;SDS011;700;51.906;8.404;2022-08-07T02:58:34;5.10;;;4.60;;
1410;SDS011;700;51.906;8.404;2022-08-07T03:03:39;5.10;;;4.33;;
1410;SDS011;700;51.906;8.404;2022-08-07T03:08:40;9.00;;;3.90;;
1410;SDS011;700;51.906;8.404;2022-08-07T03:13:41;5.33;;;4.83;;
1410;SDS011;700;51.906;8.404;2022-08-07T03:18:45;5.13;;;4.20;;
1410;SDS011;700;51.906;8.404;2022-08-07T03:23:49;8.17;;;3.97;;
1410;SDS011;700;51.906;8.404;2022-08-07T03:28:51;4.50;;;3.93;;
1410;SDS011;700;51.906;8.404;2022-08-07T03:33:54;6.30;;;4.43;;
1410;SDS011;700;51.906;8.404;2022-08-07T03:38:57;5.80;;;4.57;;
1410;SDS011;700;51.906;8.404;2022-08-07T03:44:01;7.43;;;4.30;;
1410;SDS011;700;51.906;8.404;2022-08-07T03:49:02;6.07;;;4.50;;
1410;SDS011;700;51.906;8.404;2022-08-07T03:54:08;10.80;;;6.60;;
1410;SDS011;700;51.906;8.404;2022-08-07T03:59:10;5.27;;;4.63;;
1410;SDS011;700;51.906;8.404;2022-08-07T04:04:18;5.00;;;4.20;;
1410;SDS011;700;51.906;8.404;2022-08-07T04:09:19;6.33;;;4.23;;
1410;SDS011;700;51.906;8.404;2022-08-07T04:14:23;4.97;;;4.40;;
1410;SDS011;700;51.906;8.404;2022-08-07T04:19:27;4.63;;;3.70;;
1410;SDS011;700;51.906;8.404;2022-08-07T04:24:30;4.20;;;3.80;;
1410;SDS011;700;51.906;8.404;2022-08-07T04:29:32;4.00;;;3.37;;
1410;SDS011;700;51.906;8.404;2022-08-07T04:34:32;6.83;;;3.50;;
1410;SDS011;700;51.906;8.404;2022-08-07T04:39:34;4.60;;;3.57;;
1410;SDS011;700;51.906;8.404;2022-08-07T04:44:34;5.23;;;4.00;;
1410;SDS011;700;51.906;8.404;2022-08-07T04:49:43;5.23;;;3.83;;
1410;SDS011;700;51.906;8.404;2022-08-07T05:15:48;5.33;;;4.30;;
1410;SDS011;700;51.906;8.404;2022-08-07T05:20:56;6.90;;;4.40;;
1410;SDS011;700;51.906;8.404;2022-08-07T05:26:03;4.77;;;3.43;;
1410;SDS011;700;51.906;8.404;2022-08-07T05:31:10;4.50;;;3.40;;
1410;SDS011;700;51.906;8.404;2022-08-07T05:36:12;5.00;;;3.60;;
1410;SDS011;700;51.906;8.404;2022-08-07T05:41:13;6.77;;;3.43;;
1410;SDS011;700;51.906;8.404;2022-08-07T05:46:18;8.23;;;3.80;;
1410;SDS011;700;51.906;8.404;2022-08-07T05:51:20;3.90;;;3.30;;
1410;SDS011;700;51.906;8.404;2022-08-07T05:56:23;4.43;;;2.90;;
1410;SDS011;700;51.906;8.404;2022-08-07T06:01:25;5.67;;;2.87;;
1410;SDS011;700;51.906;8.404;2022-08-07T06:06:28;16.83;;;9.70;;
1410;SDS011;700;51.906;8.404;2022-08-07T06:11:28;5.20;;;3.93;;
1410;SDS011;700;51.906;8.404;2022-08-07T06:16:31;3.17;;;2.17;;
1410;SDS011;700;51.906;8.404;2022-08-07T06:21:32;4.20;;;2.40;;
1410;SDS011;700;51.906;8.404;2022-08-07T06:26:40;5.17;;;2.03;;
1410;SDS011;700;51.906;8.404;2022-08-07T06:31:41;3.10;;;2.00;;
1410;SDS011;700;51.906;8.404;2022-08-07T06:36:42;3.80;;;2.03;;
1410;SDS011;700;51.906;8.404;2022-08-07T06:41:47;5.33;;;2.27;;
1410;SDS011;700;51.906;8.404;2022-08-07T06:46:56;5.73;;;2.10;;
1410;SDS011;700;51.906;8.404;2022-08-07T06:51:57;3.37;;;2.60;;
1410;SDS011;700;51.906;8.404;2022-08-07T06:57:02;3.83;;;2.30;;
1410;SDS011;700;51.906;8.404;2022-08-07T07:02:08;4.13;;;2.80;;
1410;SDS011;700;51.906;8.404;2022-08-07T07:07:17;4.57;;;2.33;;
1410;SDS011;700;51.906;8.404;2022-08-07T07:17:25;4.07;;;2.70;;
1410;SDS011;700;51.906;8.404;2022-08-07T07:22:35;4.20;;;2.20;;
1410;SDS011;700;51.906;8.404;2022-08-07T07:27:57;5.07;;;2.73;;
1410;SDS011;700;51.906;8.404;2022-08-07T07:32:58;6.73;;;2.47;;
1410;SDS011;700;51.906;8.404;2022-08-07T07:38:02;5.00;;;2.40;;
1410;SDS011;700;51.906;8.404;2022-08-07T07:43:06;5.17;;;2.10;;
1410;SDS011;700;51.906;8.404;2022-08-07T07:48:09;3.63;;;1.90;;
1410;SDS011;700;51.906;8.404;2022-08-07T07:53:14;3.60;;;2.33;;
1410;SDS011;700;51.906;8.404;2022-08-07T07:58:22;4.70;;;2.40;;
1410;SDS011;700;51.906;8.404;2022-08-07T08:03:24;3.20;;;1.60;;
1410;SDS011;700;51.906;8.404;2022-08-07T08:08:27;4.03;;;1.47;;
1410;SDS011;700;51.906;8.404;2022-08-07T08:13:30;2.97;;;1.60;;
1410;SDS011;700;51.906;8.404;2022-08-07T08:18:37;4.00;;;1.60;;
1410;SDS011;700;51.906;8.404;2022-08-07T08:23:40;4.93;;;1.50;;
1410;SDS011;700;51.906;8.404;2022-08-07T08:29:02;3.70;;;1.60;;
1410;SDS011;700;51.906;8.404;2022-08-07T08:34:06;2.93;;;1.30;;
1410;SDS011;700;51.906;8.404;2022-08-07T08:39:12;4.00;;;1.40;;
1410;SDS011;700;51.906;8.404;2022-08-07T09:00:11;2.67;;;0.77;;
1410;SDS011;700;51.906;8.404;2022-08-07T09:10:26;2.10;;;0.80;;
1410;SDS011;700;51.906;8.404;2022-08-07T09:15:53;1.73;;;0.87;;
1410;SDS011;700;51.906;8.404;2022-08-07T09:37:03;1.80;;;0.80;;
1410;SDS011;700;51.906;8.404;2022-08-07T09:53:21;3.23;;;0.80;;
1410;SDS011;700;51.906;8.404;2022-08-07T10:09:29;2.20;;;1.10;;
1410;SDS011;700;51.906;8.404;2022-08-07T10:41:43;1.87;;;0.80;;
1410;SDS011;700;51.906;8.404;2022-08-07T10:46:54;1.90;;;1.10;;
1410;SDS011;700;51.906;8.404;2022-08-07T10:52:08;2.13;;;0.87;;
1410;SDS011;700;51.906;8.404;2022-08-07T11:13:22;2.77;;;1.13;;
1410;SDS011;700;51.906;8.404;2022-08-07T11:24:02;2.83;;;0.90;;
1410;SDS011;700;51.906;8.404;2022-08-07T11:29:26;2.73;;;1.00;;
1410;SDS011;700;51.906;8.404;2022-08-07T11:34:48;1.50;;;1.20;;
1410;SDS011;700;51.906;8.404;2022-08-07T12:01:13;1.77;;;0.97;;
1410;SDS011;700;51.906;8.404;2022-08-07T12:17:16;1.60;;;0.80;;
1410;SDS011;700;51.906;8.404;2022-08-07T12:22:22;2.47;;;0.80;;
1410;SDS011;700;51.906;8.404;2022-08-07T12:27:47;1.63;;;0.90;;
1410;SDS011;700;51.906;8.404;2022-08-07T12:32:56;2.23;;;1.10;;
1410;SDS011;700;51.906;8.404;2022-08-07T12:37:57;1.43;;;0.80;;
1410;SDS011;700;51.906;8.404;2022-08-07T12:42:59;1.50;;;0.80;;
1410;SDS011;700;51.906;8.404;2022-08-07T12:58:42;2.70;;;1.30;;
1410;SDS011;700;51.906;8.404;2022-08-07T13:14:34;4.33;;;1.23;;
1410;SDS011;700;51.906;8.404;2022-08-07T13:19:49;3.40;;;3.10;;
1410;SDS011;700;51.906;8.404;2022-08-07T13:25:00;2.43;;;1.40;;
1410;SDS011;700;51.906;8.404;2022-08-07T13:30:05;1.80;;;1.17;;
1410;SDS011;700;51.906;8.404;2022-08-07T13:35:28;1.80;;;0.80;;
1410;SDS011;700;51.906;8.404;2022-08-07T13:40:34;2.10;;;1.20;;
1410;SDS011;700;51.906;8.404;2022-08-07T13:45:46;2.77;;;1.30;;
1410;SDS011;700;51.906;8.404;2022-08-07T13:50:55;2.63;;;1.10;;
1410;SDS011;700;51.906;8.404;2022-08-07T13:55:57;4.40;;;2.33;;
1410;SDS011;700;51.906;8.404;2022-08-07T14:01:00;1.80;;;1.30;;
1410;SDS011;700;51.906;8.404;2022-08-07T14:06:10;2.30;;;1.60;;
1410;SDS011;700;51.906;8.404;2022-08-07T14:11:13;1.73;;;0.80;;
1410;SDS011;700;51.906;8.404;2022-08-07T14:16:15;3.70;;;1.00;;
1410;SDS011;700;51.906;8.404;2022-08-07T14:21:23;2.37;;;1.20;;
1410;SDS011;700;51.906;8.404;2022-08-07T14:26:42;1.90;;;1.10;;
1410;SDS011;700;51.906;8.404;2022-08-07T14:31:50;2.77;;;1.90;;
1410;SDS011;700;51.906;8.404;2022-08-07T14:36:52;5.70;;;5.30;;
1410;SDS011;700;51.906;8.404;2022-08-07T14:41:53;1.90;;;0.97;;
1410;SDS011;700;51.906;8.404;2022-08-07T14:47:00;2.77;;;0.90;;
1410;SDS011;700;51.906;8.404;2022-08-07T14:52:08;1.70;;;1.13;;
1410;SDS011;700;51.906;8.404;2022-08-07T14:57:10;3.33;;;1.73;;
1410;SDS011;700;51.906;8.404;2022-08-07T15:02:14;2.20;;;1.20;;
1410;SDS011;700;51.906;8.404;2022-08-07T15:07:23;2.40;;;0.90;;
1410;SDS011;700;51.906;8.404;2022-08-07T15:12:27;2.03;;;1.00;;
1410;SDS011;700;51.906;8.404;2022-08-07T15:17:37;2.37;;;1.00;;
1410;SDS011;700;51.906;8.404;2022-08-07T15:22:49;2.33;;;1.10;;
1410;SDS011;700;51.906;8.404;2022-08-07T15:27:55;2.10;;;1.10;;
1410;SDS011;700;51.906;8.404;2022-08-07T15:32:59;2.27;;;1.30;;
1410;SDS011;700;51.906;8.404;2022-08-07T15:38:01;2.57;;;1.00;;
1410;SDS011;700;51.906;8.404;2022-08-07T15:53:14;2.30;;;1.00;;
1410;SDS011;700;51.906;8.404;2022-08-07T15:58:18;2.30;;;1.00;;
1410;SDS011;700;51.906;8.404;2022-08-07T16:03:29;2.27;;;1.30;;
1410;SDS011;700;51.906;8.404;2022-08-07T16:08:31;2.10;;;1.20;;
1410;SDS011;700;51.906;8.404;2022-08-07T16:13:44;2.27;;;1.33;;
1410;SDS011;700;51.906;8.404;2022-08-07T16:19:06;3.80;;;3.10;;
1410;SDS011;700;51.906;8.404;2022-08-07T16:24:32;3.60;;;1.20;;
1410;SDS011;700;51.906;8.404;2022-08-07T16:30:06;2.20;;;1.17;;
1410;SDS011;700;51.906;8.404;2022-08-07T16:35:31;2.83;;;1.53;;
1410;SDS011;700;51.906;8.404;2022-08-07T16:56:40;3.77;;;1.40;;
1410;SDS011;700;51.906;8.404;2022-08-07T17:12:18;3.70;;;1.27;;
1410;SDS011;700;51.906;8.404;2022-08-07T17:22:33;1.90;;;1.10;;
1410;SDS011;700;51.906;8.404;2022-08-07T17:33:11;2.53;;;1.10;;
1410;SDS011;700;51.906;8.404;2022-08-07T17:38:18;2.10;;;1.10;;
1410;SDS011;700;51.906;8.404;2022-08-07T17:43:26;2.23;;;1.33;;
1410;SDS011;700;51.906;8.404;2022-08-07T17:48:30;2.30;;;1.20;;
1410;SDS011;700;51.906;8.404;2022-08-07T17:53:44;3.43;;;1.53;;
1410;SDS011;700;51.906;8.404;2022-08-07T18:04:28;3.13;;;1.73;;
1410;SDS011;700;51.906;8.404;2022-08-07T18:09:36;4.03;;;1.90;;
1410;SDS011;700;51.906;8.404;2022-08-07T18:19:53;6.57;;;1.50;;
1410;SDS011;700;51.906;8.404;2022-08-07T18:24:59;3.80;;;1.87;;
1410;SDS011;700;51.906;8.404;2022-08-07T18:30:11;3.00;;;1.87;;
1410;SDS011;700;51.906;8.404;2022-08-07T18:35:21;3.10;;;1.83;;
1410;SDS011;700;51.906;8.404;2022-08-07T18:50:58;3.07;;;2.10;;
1410;SDS011;700;51.906;8.404;2022-08-07T18:56:18;3.03;;;2.07;;
1410;SDS011;700;51.906;8.404;2022-08-07T19:01:32;2.70;;;1.90;;
1410;SDS011;700;51.906;8.404;2022-08-07T19:06:59;3.67;;;2.10;;
1410;SDS011;700;51.906;8.404;2022-08-07T19:17:14;3.93;;;2.20;;
1410;SDS011;700;51.906;8.404;2022-08-07T19:27:23;3.40;;;2.03;;
1410;SDS011;700;51.906;8.404;2022-08-07T19:32:29;4.83;;;1.97;;
1410;SDS011;700;51.906;8.404;2022-08-07T19:37:31;5.13;;;1.87;;
1410;SDS011;700;51.906;8.404;2022-08-07T19:42:40;2.53;;;1.90;;
1410;SDS011;700;51.906;8.404;2022-08-07T19:47:41;3.27;;;2.50;;
1410;SDS011;700;51.906;8.404;2022-08-07T19:52:46;3.53;;;2.87;;
1410;SDS011;700;51.906;8.404;2022-08-07T19:57:50;7.13;;;2.90;;
1410;SDS011;700;51.906;8.404;2022-08-07T20:02:59;4.37;;;2.63;;
1410;SDS011;700;51.906;8.404;2022-08-07T20:08:03;3.63;;;2.60;;
1410;SDS011;700;51.906;8.404;2022-08-07T20:13:14;3.00;;;2.30;;
1410;SDS011;700;51.906;8.404;2022-08-07T20:18:17;4.03;;;2.03;;
1410;SDS011;700;51.906;8.404;2022-08-07T20:23:19;3.23;;;2.50;;
1410;SDS011;700;51.906;8.404;2022-08-07T20:28:22;5.80;;;2.50;;
1410;SDS011;700;51.906;8.404;2022-08-07T20:33:30;16.30;;;3.00;;
1410;SDS011;700;51.906;8.404;2022-08-07T20:38:34;8.73;;;2.97;;
1410;SDS011;700;51.906;8.404;2022-08-07T20:43:38;4.40;;;3.67;;
1410;SDS011;700;51.906;8.404;2022-08-07T20:48:43;5.23;;;3.70;;
1410;SDS011;700;51.906;8.404;2022-08-07T20:53:48;6.23;;;5.60;;
1410;SDS011;700;51.906;8.404;2022-08-07T20:58:49;7.63;;;5.80;;
1410;SDS011;700;51.906;8.404;2022-08-07T21:03:53;7.40;;;6.57;;
1410;SDS011;700;51.906;8.404;2022-08-07T21:08:56;7.13;;;5.40;;
1410;SDS011;700;51.906;8.404;2022-08-07T21:14:09;10.03;;;5.07;;
1410;SDS011;700;51.906;8.404;2022-08-07T21:19:16;6.80;;;4.60;;
1410;SDS011;700;51.906;8.404;2022-08-07T21:24:25;6.87;;;5.67;;
1410;SDS011;700;51.906;8.404;2022-08-07T21:29:50;8.37;;;5.70;;
1410;SDS011;700;51.906;8.404;2022-08-07T21:35:00;7.90;;;5.10;;
1410;SDS011;700;51.906;8.404;2022-08-07T21:40:10;6.37;;;4.17;;
1410;SDS011;700;51.906;8.404;2022-08-07T21:45:59;6.57;;;3.90;;
1410;SDS011;700;51.906;8.404;2022-08-07T21:56:26;5.60;;;3.60;;
1410;SDS011;700;51.906;8.404;2022-08-07T22:01:41;4.73;;;3.27;;
1410;SDS011;700;51.906;8.404;2022-08-07T22:18:01;4.83;;;3.50;;
1410;SDS011;700;51.906;8.404;2022-08-07T22:23:18;5.40;;;3.60;;
1410;SDS011;700;51.906;8.404;2022-08-07T22:28:39;4.93;;;3.87;;
1410;SDS011;700;51.906;8.404;2022-08-07T22:34:14;6.87;;;3.57;;
1410;SDS011;700;51.906;8.404;2022-08-07T22:45:12;6.20;;;3.83;;
1410;SDS011;700;51.906;8.404;2022-08-07T22:55:45;4.97;;;4.10;;
1410;SDS011;700;51.906;8.404;2022-08-07T23:11:54;5.67;;;4.10;;
1410;SDS011;700;51.906;8.404;2022-08-07T23:22:28;4.20;;;3.80;;
1410;SDS011;700;51.906;8.404;2022-08-07T23:27:40;4.20;;;2.67;;
1410;SDS011;700;51.906;8.404;2022-08-07T23:38:45;5.20;;;3.00;;
1410;SDS011;700;51.906;8.404;2022-08-07T23:49:29;4.53;;;3.33;;
1410;SDS011;700;51.906;8.404;2022-08-07T23:55:01;4.10;;;2.77;;
